Time;durP1;ratioP1;P1;durP2;ratioP2;P2;SDS_P1;SDS_P2;PMS_P1;PMS_P2;Temp;Humidity;BMP_temperature;BMP_pressure;BME280_temperature;BME280_humidity;BME280_pressure;Samples;Min_cycle;Max_cycle;Signal;HPM_P1;HPM_P2
2022/03/02 00:01:18;;;;;;;14.33;10.10;;;;;;;0.21;nan;98944.66;5035689;28;20782;-65
2022/03/02 00:03:44;;;;;;;15.73;10.17;;;;;;;0.22;nan;98950.72;5036106;28;20252;-65
2022/03/02 00:06:11;;;;;;;14.70;9.80;;;;;;;0.17;nan;98954.56;5036067;28;20197;-64
2022/03/02 00:08:38;;;;;;;18.00;9.60;;;;;;;0.15;nan;98951.22;5036197;28;20228;-65
2022/03/02 00:11:04;;;;;;;16.80;10.20;;;;;;;0.00;nan;98954.34;5036018;28;20419;-65
2022/03/02 00:13:31;;;;;;;16.17;10.57;;;;;;;0.01;nan;98953.38;5036241;28;20733;-65
2022/03/02 00:15:58;;;;;;;12.53;9.83;;;;;;;-0.04;nan;98943.31;5038920;28;20202;-65
2022/03/02 00:18:24;;;;;;;13.17;9.70;;;;;;;-0.05;nan;98943.44;5039447;28;20451;-65
2022/03/02 00:20:51;;;;;;;18.10;10.43;;;;;;;-0.04;nan;98925.03;5039367;28;20522;-65
2022/03/02 00:23:17;;;;;;;14.40;10.30;;;;;;;0.13;nan;98920.13;5039089;28;20867;-65
2022/03/02 00:25:43;;;;;;;17.87;12.00;;;;;;;0.22;nan;98928.84;5039374;28;20470;-66
2022/03/02 00:28:10;;;;;;;14.13;10.70;;;;;;;0.27;nan;98931.03;5039208;28;20218;-65
2022/03/02 00:30:37;;;;;;;14.70;10.10;;;;;;;0.31;nan;98929.81;5039326;28;20206;-65
2022/03/02 00:33:03;;;;;;;15.47;10.87;;;;;;;0.38;nan;98916.06;5039273;28;20198;-66
2022/03/02 00:35:29;;;;;;;16.80;10.97;;;;;;;0.46;nan;98911.97;5039449;28;20190;-65
2022/03/02 00:37:56;;;;;;;15.77;10.47;;;;;;;0.45;nan;98912.91;5039109;28;20455;-65
2022/03/02 00:40:22;;;;;;;13.87;10.20;;;;;;;0.51;nan;98922.84;5039179;28;20209;-65
2022/03/02 00:42:48;;;;;;;14.07;10.43;;;;;;;0.51;nan;98930.69;5039030;28;20498;-65
2022/03/02 00:45:15;;;;;;;16.43;10.47;;;;;;;0.55;nan;98932.06;5039294;28;20190;-65
2022/03/02 00:47:41;;;;;;;14.27;9.90;;;;;;;0.57;nan;98927.50;5039021;28;20194;-65
2022/03/02 00:50:09;;;;;;;18.77;11.00;;;;;;;0.51;nan;98922.84;5038607;28;20890;-65
2022/03/02 00:52:36;;;;;;;12.37;10.10;;;;;;;0.47;nan;98923.09;5038870;28;20733;-65
2022/03/02 00:55:03;;;;;;;14.53;10.03;;;;;;;0.51;nan;98922.84;5038937;28;20190;-65
2022/03/02 00:57:30;;;;;;;13.47;9.50;;;;;;;0.45;nan;98920.78;5038741;28;20202;-65
2022/03/02 00:59:57;;;;;;;15.17;10.83;;;;;;;0.49;nan;98916.94;5038363;28;20864;-66
2022/03/02 01:02:23;;;;;;;17.33;10.50;;;;;;;0.42;nan;98911.41;5038404;28;20918;-65
2022/03/02 01:04:49;;;;;;;17.10;10.27;;;;;;;0.44;nan;98904.22;5038698;28;20209;-66
2022/03/02 01:07:16;;;;;;;15.27;10.40;;;;;;;0.46;nan;98901.50;5038719;28;20198;-66
2022/03/02 01:09:42;;;;;;;15.03;9.97;;;;;;;0.47;nan;98901.34;5038520;28;20222;-65
2022/03/02 01:12:09;;;;;;;16.77;10.10;;;;;;;0.46;nan;98901.50;5038537;28;20205;-65
2022/03/02 01:14:36;;;;;;;15.40;9.77;;;;;;;0.38;nan;98904.78;5038585;28;20198;-65
2022/03/02 01:17:02;;;;;;;16.47;10.27;;;;;;;0.35;nan;98906.84;5038504;28;20430;-65
2022/03/02 01:19:29;;;;;;;13.40;10.03;;;;;;;0.31;nan;98901.03;5038325;28;20237;-65
2022/03/02 01:21:55;;;;;;;14.77;10.40;;;;;;;0.14;nan;98907.75;5038863;28;20463;-66
2022/03/02 01:24:22;;;;;;;16.00;10.77;;;;;;;0.15;nan;98904.16;5038366;28;20204;-65
2022/03/02 01:26:48;;;;;;;15.37;10.50;;;;;;;0.16;nan;98899.78;5038190;28;20430;-65
2022/03/02 01:29:15;;;;;;;13.60;10.27;;;;;;;0.19;nan;98897.72;5038203;28;20463;-65
2022/03/02 01:31:41;;;;;;;16.10;10.80;;;;;;;0.21;nan;98891.53;5037890;28;20858;-66
2022/03/02 01:34:08;;;;;;;14.00;10.83;;;;;;;0.21;nan;98888.94;5038141;28;20454;-65
2022/03/02 01:36:34;;;;;;;18.60;11.57;;;;;;;0.22;nan;98891.38;5038037;28;20198;-65
2022/03/02 01:39:00;;;;;;;17.70;11.30;;;;;;;0.18;nan;98885.59;5037737;28;20218;-65
2022/03/02 01:41:27;;;;;;;13.70;10.27;;;;;;;0.17;nan;98888.34;5037965;28;20466;-66
2022/03/02 01:43:55;;;;;;;14.77;10.13;;;;;;;0.26;nan;98889.34;5037625;28;20210;-65
2022/03/02 01:46:22;;;;;;;14.93;10.93;;;;;;;0.17;nan;98881.34;5037929;28;20201;-65
2022/03/02 01:48:49;;;;;;;16.47;10.53;;;;;;;0.13;nan;98878.31;5037753;28;20450;-65
2022/03/02 01:51:16;;;;;;;15.33;10.13;;;;;;;0.12;nan;98872.25;5037577;28;20601;-66
2022/03/02 01:53:43;;;;;;;13.87;9.87;;;;;;;0.05;nan;98871.13;5037680;28;20435;-65
2022/03/02 01:56:10;;;;;;;16.73;9.67;;;;;;;0.03;nan;98871.28;5037694;28;20233;-65
2022/03/02 01:58:37;;;;;;;12.83;9.70;;;;;;;-0.06;nan;98861.59;5037637;28;20463;-65
2022/03/02 02:01:04;;;;;;;13.73;9.67;;;;;;;-0.07;nan;98870.41;5037243;28;20220;-65
2022/03/02 02:03:30;;;;;;;13.40;9.60;;;;;;;-0.15;nan;98865.03;5037570;28;20435;-65
2022/03/02 02:05:57;;;;;;;16.20;10.20;;;;;;;-0.19;nan;98854.94;5037173;28;20871;-65
2022/03/02 02:08:24;;;;;;;15.10;10.23;;;;;;;-0.18;nan;98849.59;5037416;28;20451;-65
2022/03/02 02:10:51;;;;;;;13.07;9.70;;;;;;;-0.14;nan;98839.69;5037456;28;20479;-65
2022/03/02 02:13:18;;;;;;;17.10;10.00;;;;;;;-0.07;nan;98833.00;5037384;28;20443;-65
2022/03/02 02:15:44;;;;;;;16.17;11.27;;;;;;;-0.09;nan;98827.88;5037332;28;20435;-65
2022/03/02 02:18:11;;;;;;;14.30;11.00;;;;;;;-0.09;nan;98827.09;5037223;28;20455;-65
2022/03/02 02:20:39;;;;;;;18.43;10.63;;;;;;;-0.15;nan;98823.22;5037189;28;20435;-65
2022/03/02 02:23:06;;;;;;;17.70;11.30;;;;;;;-0.12;nan;98819.50;5037132;28;20475;-65
2022/03/02 02:25:32;;;;;;;17.80;11.80;;;;;;;-0.15;nan;98812.75;5037216;28;20423;-65
2022/03/02 02:28:00;;;;;;;16.20;10.80;;;;;;;-0.20;nan;98814.94;5037099;28;20768;-65
2022/03/02 02:30:27;;;;;;;16.17;10.83;;;;;;;-0.25;nan;98814.53;5037152;28;20423;-65
2022/03/02 02:32:53;;;;;;;16.20;11.00;;;;;;;-0.30;nan;98814.06;5037062;28;20432;-65
2022/03/02 02:35:20;;;;;;;14.40;10.67;;;;;;;-0.38;nan;98800.88;5037066;28;20423;-65
2022/03/02 02:37:46;;;;;;;15.83;10.50;;;;;;;-0.39;nan;98803.59;5036446;28;20435;-65
2022/03/02 02:40:18;;;;;;;19.77;10.73;;;;;;;-0.42;nan;98796.88;5036951;28;20431;-65
2022/03/02 02:42:45;;;;;;;13.53;10.37;;;;;;;-0.43;nan;98797.00;5036929;28;20466;-65
2022/03/02 02:45:15;;;;;;;16.73;11.23;;;;;;;-0.44;nan;98790.13;5036925;28;20431;-66
2022/03/02 02:47:42;;;;;;;15.87;11.03;;;;;;;-0.43;nan;98791.78;5036767;28;20442;-65
2022/03/02 02:50:23;;;;;;;15.23;9.87;;;;;;;-0.40;nan;98788.91;5036797;28;20732;-66
2022/03/02 02:52:51;;;;;;;14.80;9.87;;;;;;;-0.47;nan;98804.28;5036796;28;20419;-66
2022/03/02 02:55:18;;;;;;;13.03;9.37;;;;;;;-0.49;nan;98814.00;5036744;28;20431;-65
2022/03/02 02:57:45;;;;;;;13.83;9.77;;;;;;;-0.49;nan;98821.03;5036593;28;20446;-65
2022/03/02 03:00:14;;;;;;;13.67;9.77;;;;;;;-0.50;nan;98817.59;5036309;28;20420;-65
2022/03/02 03:02:42;;;;;;;18.63;10.23;;;;;;;-0.50;nan;98817.59;5036302;28;20906;-66
2022/03/02 03:05:13;;;;;;;16.70;10.60;;;;;;;-0.55;nan;98809.31;5036558;28;20431;-65
2022/03/02 03:07:40;;;;;;;13.27;10.10;;;;;;;-0.59;nan;98810.53;5036209;28;20439;-65
2022/03/02 03:10:07;;;;;;;14.40;10.63;;;;;;;-0.68;nan;98808.72;5036588;28;20427;-65
2022/03/02 03:12:36;;;;;;;16.37;10.93;;;;;;;-0.72;nan;98812.53;5036506;28;20431;-65
2022/03/02 03:15:05;;;;;;;15.17;10.67;;;;;;;-0.71;nan;98810.75;5036463;28;20439;-65
2022/03/02 03:17:31;;;;;;;13.43;10.43;;;;;;;-0.74;nan;98814.47;5036361;28;20431;-65
2022/03/02 03:19:58;;;;;;;13.83;9.97;;;;;;;-0.78;nan;98820.91;5036530;28;20434;-65
2022/03/02 03:22:24;;;;;;;15.37;11.10;;;;;;;-0.81;nan;98815.94;5036006;28;20918;-65
2022/03/02 03:24:51;;;;;;;13.90;9.77;;;;;;;-0.85;nan;98811.09;5036373;28;20430;-65
2022/03/02 03:27:18;;;;;;;16.07;11.57;;;;;;;-0.89;nan;98805.28;5036194;28;20439;-65
2022/03/02 03:29:44;;;;;;;13.47;10.60;;;;;;;-0.84;nan;98805.75;5036299;28;20509;-65
2022/03/02 03:32:10;;;;;;;15.60;10.10;;;;;;;-0.81;nan;98792.44;5036270;28;20433;-66
2022/03/02 03:34:37;;;;;;;13.00;9.93;;;;;;;-0.82;nan;98797.78;5035972;28;20435;-64
2022/03/02 03:37:04;;;;;;;15.20;10.63;;;;;;;-0.81;nan;98786.41;5036217;28;20432;-65
2022/03/02 03:39:30;;;;;;;14.47;10.13;;;;;;;-0.88;nan;98787.88;5035875;28;20932;-65
2022/03/02 03:41:56;;;;;;;13.17;9.47;;;;;;;-0.86;nan;98792.00;5036169;28;20475;-65
2022/03/02 03:44:24;;;;;;;13.70;9.67;;;;;;;-0.91;nan;98788.94;5036198;28;20458;-65
2022/03/02 03:46:50;;;;;;;15.13;9.93;;;;;;;-0.87;nan;98795.56;5036181;28;20740;-65
2022/03/02 03:49:17;;;;;;;13.70;10.03;;;;;;;-0.90;nan;98795.81;5036697;28;20451;-65
2022/03/02 03:51:44;;;;;;;15.33;10.40;;;;;;;-0.99;nan;98801.81;5039741;28;20881;-65
2022/03/02 03:54:10;;;;;;;14.13;10.20;;;;;;;-1.00;nan;98802.78;5039735;28;20439;-65
2022/03/02 03:56:37;;;;;;;15.57;9.97;;;;;;;-0.99;nan;98793.97;5039954;28;20446;-65
2022/03/02 03:59:04;;;;;;;14.33;9.73;;;;;;;-1.03;nan;98797.00;5040139;28;20462;-65
2022/03/02 04:01:31;;;;;;;14.83;9.57;;;;;;;-0.97;nan;98799.09;5039639;28;20442;-64
2022/03/02 04:03:57;;;;;;;14.13;9.83;;;;;;;-0.96;nan;98792.91;5039450;28;20442;-65
2022/03/02 04:06:24;;;;;;;14.87;10.10;;;;;;;-0.95;nan;98787.56;5039745;28;20439;-65
2022/03/02 04:08:50;;;;;;;14.67;10.00;;;;;;;-0.92;nan;98789.06;5039477;28;20455;-65
2022/03/02 04:11:16;;;;;;;15.60;10.33;;;;;;;-0.94;nan;98786.59;5039661;28;20809;-65
2022/03/02 04:13:43;;;;;;;15.47;10.43;;;;;;;-0.96;nan;98780.69;5039363;28;20866;-66
2022/03/02 04:16:09;;;;;;;14.17;10.13;;;;;;;-0.96;nan;98785.91;5039300;28;20434;-65
2022/03/02 04:18:35;;;;;;;18.10;10.90;;;;;;;-0.97;nan;98786.03;5039380;28;20458;-65
2022/03/02 04:21:02;;;;;;;15.50;10.73;;;;;;;-1.02;nan;98781.22;5039455;28;20431;-65
2022/03/02 04:23:29;;;;;;;16.40;10.90;;;;;;;-1.07;nan;98785.97;5039290;28;20470;-65
2022/03/02 04:25:55;;;;;;;15.87;10.93;;;;;;;-1.03;nan;98781.34;5039334;28;20435;-65
2022/03/02 04:28:22;;;;;;;16.90;10.77;;;;;;;-1.02;nan;98776.00;5038847;28;20530;-65
2022/03/02 04:30:48;;;;;;;14.87;10.63;;;;;;;-1.12;nan;98767.28;5038929;28;20875;-65
2022/03/02 04:33:15;;;;;;;14.53;10.20;;;;;;;-1.04;nan;98770.06;5039040;28;20707;-65
2022/03/02 04:35:42;;;;;;;17.70;10.43;;;;;;;-0.93;nan;98767.41;5038861;28;20443;-65
2022/03/02 04:38:09;;;;;;;16.73;11.50;;;;;;;-0.92;nan;98753.38;5039456;28;20509;-65
2022/03/02 04:40:36;;;;;;;14.27;10.10;;;;;;;-0.91;nan;98760.25;5038993;28;20784;-65
2022/03/02 04:43:04;;;;;;;13.67;10.43;;;;;;;-0.96;nan;98746.75;5038780;28;20562;-65
2022/03/02 04:45:30;;;;;;;17.73;11.03;;;;;;;-1.04;nan;98748.38;5038863;28;20434;-65
2022/03/02 04:47:58;;;;;;;16.37;11.33;;;;;;;-1.09;nan;98740.94;5038479;28;20454;-65
2022/03/02 04:50:26;;;;;;;16.13;10.53;;;;;;;-1.12;nan;98735.16;5038818;28;20434;-65
2022/03/02 04:52:53;;;;;;;14.87;10.23;;;;;;;-1.23;nan;98743.88;5038582;28;20419;-65
2022/03/02 04:55:20;;;;;;;17.37;10.23;;;;;;;-1.15;nan;98740.63;5038790;28;20431;-65
2022/03/02 04:57:50;;;;;;;16.77;9.90;;;;;;;-1.14;nan;98745.72;5038755;28;20522;-65
2022/03/02 05:00:36;;;;;;;14.33;9.87;;;;;;;-1.14;nan;98742.25;5020347;28;20447;-65
2022/03/02 05:03:05;;;;;;;16.30;10.00;;;;;;;-1.14;nan;98739.66;5037683;28;20933;-65
2022/03/02 05:05:34;;;;;;;13.17;9.83;;;;;;;-1.15;nan;98733.63;5038149;28;20853;-67
2022/03/02 05:08:01;;;;;;;15.83;10.17;;;;;;;-1.16;nan;98745.03;5038222;28;20758;-67
2022/03/02 05:10:29;;;;;;;13.87;10.13;;;;;;;-1.18;nan;98744.31;5038187;28;20419;-67
2022/03/02 05:12:56;;;;;;;17.83;10.20;;;;;;;-1.17;nan;98742.53;5038666;28;20423;-67
2022/03/02 05:15:23;;;;;;;17.00;9.73;;;;;;;-1.18;nan;98736.50;5038363;28;20427;-67
2022/03/02 05:17:50;;;;;;;15.70;10.10;;;;;;;-1.13;nan;98741.34;5020778;28;20757;-67
2022/03/02 05:20:18;;;;;;;13.63;9.20;;;;;;;-1.11;nan;98740.25;5038211;28;20426;-65
2022/03/02 05:22:45;;;;;;;13.93;10.23;;;;;;;-1.17;nan;98735.53;5037657;28;20470;-65
2022/03/02 05:25:13;;;;;;;16.63;10.70;;;;;;;-1.11;nan;98736.81;5037945;28;20423;-67
2022/03/02 05:27:41;;;;;;;16.30;10.27;;;;;;;-1.11;nan;98727.19;5037981;28;20485;-65
2022/03/02 05:30:08;;;;;;;13.67;10.83;;;;;;;-1.11;nan;98727.19;5038069;28;20423;-66
2022/03/02 05:32:35;;;;;;;17.70;11.23;;;;;;;-1.04;nan;98723.09;5037945;28;20514;-67
2022/03/02 05:35:01;;;;;;;16.67;10.77;;;;;;;-1.11;nan;98732.41;5037733;28;20738;-67
2022/03/02 05:37:27;;;;;;;16.97;10.47;;;;;;;-1.10;nan;98728.84;5037881;28;20419;-67
2022/03/02 05:39:54;;;;;;;20.10;11.97;;;;;;;-1.03;nan;98734.38;5037623;28;20430;-68
2022/03/02 05:42:20;;;;;;;18.07;11.63;;;;;;;-1.02;nan;98729.03;5037450;28;20470;-67
2022/03/02 05:44:47;;;;;;;15.30;11.00;;;;;;;-0.98;nan;98727.78;5037168;28;20431;-68
2022/03/02 05:47:14;;;;;;;20.13;12.43;;;;;;;-1.00;nan;98719.28;5036995;28;20506;-67
2022/03/02 05:49:40;;;;;;;18.00;12.03;;;;;;;-0.93;nan;98730.84;5037696;28;20727;-67
2022/03/02 05:52:07;;;;;;;18.23;12.60;;;;;;;-0.92;nan;98724.66;5037562;28;20424;-66
2022/03/02 05:54:33;;;;;;;16.97;11.73;;;;;;;-0.89;nan;98724.38;5037504;28;20435;-65
2022/03/02 05:57:00;;;;;;;16.83;11.50;;;;;;;-0.92;nan;98723.84;5037532;28;20431;-67
2022/03/02 05:59:26;;;;;;;13.60;10.57;;;;;;;-0.95;nan;98726.72;5036903;28;20455;-66
2022/03/02 06:01:52;;;;;;;17.83;11.30;;;;;;;-0.79;nan;98725.28;5037055;28;20540;-65
2022/03/02 06:04:19;;;;;;;18.33;12.10;;;;;;;-0.87;nan;98725.09;5037279;28;20429;-66
2022/03/02 06:06:45;;;;;;;19.07;11.17;;;;;;;-0.86;nan;98725.94;5036419;28;20913;-65
2022/03/02 06:09:12;;;;;;;16.23;10.63;;;;;;;-0.86;nan;98725.94;5037024;28;20455;-66
2022/03/02 06:11:39;;;;;;;16.00;10.63;;;;;;;-0.84;nan;98718.78;5035999;28;20716;-66
2022/03/02 06:14:07;;;;;;;17.80;12.00;;;;;;;-0.78;nan;98719.09;5036500;28;20502;-65
2022/03/02 06:16:34;;;;;;;19.23;10.93;;;;;;;-0.68;nan;98721.72;5036720;28;20881;-65
2022/03/02 06:19:02;;;;;;;18.00;10.63;;;;;;;-0.71;nan;98716.78;5036495;28;20481;-65
2022/03/02 06:21:30;;;;;;;13.57;10.83;;;;;;;-0.66;nan;98707.59;5036275;28;20522;-65
2022/03/02 06:23:57;;;;;;;15.83;10.43;;;;;;;-0.62;nan;98716.78;5036128;28;20463;-65
2022/03/02 06:26:25;;;;;;;17.47;12.07;;;;;;;-0.65;nan;98709.25;5036369;28;20431;-66
2022/03/02 06:28:53;;;;;;;17.53;11.07;;;;;;;-0.62;nan;98710.75;5036355;28;20455;-66
2022/03/02 06:31:20;;;;;;;17.20;11.40;;;;;;;-0.62;nan;98708.16;5036560;28;20442;-65
2022/03/02 06:33:47;;;;;;;16.77;10.60;;;;;;;-0.57;nan;98717.25;5036468;28;20443;-66
2022/03/02 06:36:14;;;;;;;18.07;11.40;;;;;;;-0.49;nan;98725.22;5036071;28;20847;-65
2022/03/02 06:38:41;;;;;;;18.33;10.43;;;;;;;-0.50;nan;98727.94;5036628;28;20773;-66
2022/03/02 06:41:25;;;;;;;15.37;11.17;;;;;;;-0.42;nan;98723.72;5036328;28;20435;-65
2022/03/02 06:44:00;;;;;;;17.93;11.43;;;;;;;-0.34;nan;98729.13;5036481;28;20759;-66
2022/03/02 06:46:56;;;;;;;20.37;11.10;;;;;;;-0.27;nan;98730.22;5035941;28;20423;-66
2022/03/02 06:49:47;;;;;;;15.53;10.23;;;;;;;-0.23;nan;98723.75;5035684;28;20506;-66
2022/03/02 06:52:18;;;;;;;17.10;10.90;;;;;;;-0.23;nan;98721.16;5036123;28;20427;-65
2022/03/02 06:54:49;;;;;;;14.77;10.97;;;;;;;-0.26;nan;98721.41;5036313;28;20212;-71
2022/03/02 06:57:18;;;;;;;20.67;11.23;;;;;;;-0.14;nan;98730.78;5036148;28;20439;-65
2022/03/02 06:59:50;;;;;;;15.33;11.10;;;;;;;-0.09;nan;98727.78;5035814;28;20933;-66
2022/03/02 07:02:24;;;;;;;19.47;11.47;;;;;;;-0.18;nan;98732.00;5035782;28;20447;-65
2022/03/02 07:04:53;;;;;;;15.70;10.83;;;;;;;-0.08;nan;98727.63;5035702;28;20831;-65
2022/03/02 07:07:20;;;;;;;14.93;10.90;;;;;;;0.00;nan;98725.16;5035899;28;20434;-66
2022/03/02 07:09:47;;;;;;;15.43;11.20;;;;;;;0.13;nan;98731.91;5035488;28;20895;-66
2022/03/02 07:12:14;;;;;;;14.87;10.70;;;;;;;0.01;nan;98728.59;5035790;28;20737;-66
2022/03/02 07:14:40;;;;;;;16.27;11.10;;;;;;;0.02;nan;98730.25;5035774;28;20427;-68
2022/03/02 07:17:07;;;;;;;14.63;10.47;;;;;;;0.07;nan;98735.88;5035795;28;20423;-67
2022/03/02 07:19:33;;;;;;;19.20;11.37;;;;;;;0.16;nan;98740.28;5035898;28;20454;-65
2022/03/02 07:22:05;;;;;;;16.13;11.53;;;;;;;0.23;nan;98736.97;5035923;28;20437;-67
2022/03/02 07:24:46;;;;;;;19.40;11.77;;;;;;;0.35;nan;98734.25;5038143;28;20486;-66
2022/03/02 07:27:16;;;;;;;15.97;10.77;;;;;;;0.48;nan;98740.81;5039373;28;20823;-67
2022/03/02 07:29:43;;;;;;;18.43;12.43;;;;;;;0.44;nan;98736.84;5039742;28;20744;-66
2022/03/02 07:32:11;;;;;;;15.87;11.77;;;;;;;0.54;nan;98742.06;5039673;28;20311;-66
2022/03/02 07:34:42;;;;;;;13.37;10.60;;;;;;;0.56;nan;98738.34;5039946;28;20198;-69
2022/03/02 07:37:09;;;;;;;18.27;11.53;;;;;;;0.71;nan;98731.69;5039218;28;20196;-67
2022/03/02 07:39:36;;;;;;;18.60;11.67;;;;;;;0.60;nan;98737.09;5039719;28;20232;-67
2022/03/02 07:42:04;;;;;;;18.87;12.53;;;;;;;0.57;nan;98731.31;5039546;28;20206;-67
2022/03/02 07:44:31;;;;;;;15.13;11.30;;;;;;;0.55;nan;98730.63;5039642;28;20206;-67
2022/03/02 07:46:57;;;;;;;19.23;12.43;;;;;;;0.67;nan;98737.38;5039674;28;20206;-67
2022/03/02 07:49:23;;;;;;;22.67;12.67;;;;;;;0.71;nan;98742.16;5039390;28;20230;-66
2022/03/02 07:51:54;;;;;;;16.67;11.60;;;;;;;0.84;nan;98734.84;5039439;28;20631;-66
2022/03/02 07:54:21;;;;;;;16.10;11.60;;;;;;;1.04;nan;98739.03;5040124;28;20182;-67
2022/03/02 07:56:48;;;;;;;15.67;11.97;;;;;;;1.10;nan;98735.88;5039753;28;20582;-68
2022/03/02 07:59:17;;;;;;;18.97;12.90;;;;;;;1.24;nan;98737.19;5039586;28;20551;-68
2022/03/02 08:01:45;;;;;;;18.13;12.23;;;;;;;1.09;nan;98730.78;5039288;28;20225;-69
2022/03/02 08:04:11;;;;;;;18.97;12.47;;;;;;;1.17;nan;98726.47;5038977;28;20230;-68
2022/03/02 08:06:40;;;;;;;20.40;12.87;;;;;;;1.16;nan;98726.59;5039400;28;20195;-68
2022/03/02 08:09:09;;;;;;;21.87;13.37;;;;;;;1.19;nan;98735.00;5039283;28;20303;-67
2022/03/02 08:11:37;;;;;;;22.30;13.53;;;;;;;1.27;nan;98739.53;5038824;28;20209;-67
2022/03/02 08:14:05;;;;;;;18.03;12.07;;;;;;;1.42;nan;98738.91;5039426;28;20225;-68
2022/03/02 08:16:32;;;;;;;17.77;13.73;;;;;;;1.50;nan;98738.19;5039129;28;20197;-69
2022/03/02 08:19:01;;;;;;;18.43;13.27;;;;;;;1.51;nan;98745.06;5039209;28;20229;-69
2022/03/02 08:21:30;;;;;;;18.10;12.30;;;;;;;1.53;nan;98745.75;5038967;28;20206;-69
2022/03/02 08:23:59;;;;;;;17.63;11.97;;;;;;;1.47;nan;98741.06;5038971;28;20218;-68
2022/03/02 08:26:26;;;;;;;19.87;11.50;;;;;;;1.78;nan;98742.41;5038874;28;20202;-67
2022/03/02 08:28:55;;;;;;;17.50;12.47;;;;;;;1.75;nan;98746.16;5038818;28;20244;-68
2022/03/02 08:31:23;;;;;;;18.50;12.90;;;;;;;1.86;nan;98734.66;5038774;28;20224;-69
2022/03/02 08:33:50;;;;;;;17.97;12.37;;;;;;;1.80;nan;98732.63;5038855;28;20230;-69
2022/03/02 08:36:21;;;;;;;17.87;12.40;;;;;;;1.86;nan;98732.03;5037930;28;20194;-68
2022/03/02 08:38:50;;;;;;;17.97;12.07;;;;;;;1.97;nan;98729.19;5038476;28;20312;-68
2022/03/02 08:41:18;;;;;;;18.43;12.10;;;;;;;2.05;nan;98732.72;5039362;28;20194;-68
2022/03/02 08:43:46;;;;;;;16.00;11.50;;;;;;;2.08;nan;98728.97;5038298;28;20214;-69
2022/03/02 08:46:13;;;;;;;21.07;12.60;;;;;;;2.12;nan;98717.22;5038694;28;20194;-69
2022/03/02 08:48:40;;;;;;;14.60;11.07;;;;;;;2.30;nan;98728.53;5038289;28;20729;-69
2022/03/02 08:51:07;;;;;;;17.03;11.90;;;;;;;2.32;nan;98719.53;5038884;28;20194;-69
2022/03/02 08:53:34;;;;;;;21.50;11.07;;;;;;;2.65;nan;98715.34;5038554;28;20209;-68
2022/03/02 08:56:03;;;;;;;15.27;11.83;;;;;;;2.51;nan;98714.09;5038285;28;20195;-69
2022/03/02 08:58:30;;;;;;;14.83;11.50;;;;;;;2.62;nan;98710.41;5038230;28;20221;-68
2022/03/02 09:01:00;;;;;;;18.17;11.87;;;;;;;2.59;nan;98705.47;5038150;28;20214;-67
2022/03/02 09:03:31;;;;;;;18.50;11.67;;;;;;;2.72;nan;98704.09;5038712;28;20298;-67
2022/03/02 09:05:58;;;;;;;15.47;11.37;;;;;;;2.82;nan;98704.81;5037914;28;20491;-66
2022/03/02 09:08:24;;;;;;;18.20;11.07;;;;;;;2.75;nan;98705.59;5037752;28;20222;-67
2022/03/02 09:10:51;;;;;;;15.83;11.50;;;;;;;3.04;nan;98701.66;5038750;28;20201;-67
2022/03/02 09:13:17;;;;;;;17.03;11.27;;;;;;;3.43;nan;98718.59;5037850;28;20198;-66
2022/03/02 09:15:43;;;;;;;17.53;10.80;;;;;;;3.53;nan;98714.03;5038258;28;20198;-69
2022/03/02 09:18:10;;;;;;;17.43;11.70;;;;;;;3.62;nan;98705.19;5038076;28;20233;-67
2022/03/02 09:20:39;;;;;;;13.50;10.13;;;;;;;3.75;nan;98705.56;5038092;28;20553;-67
2022/03/02 09:23:05;;;;;;;14.40;11.07;;;;;;;3.79;nan;98706.88;5038383;28;20225;-67
2022/03/02 09:25:33;;;;;;;19.53;11.23;;;;;;;3.78;nan;98707.03;5038064;28;20208;-68
2022/03/02 09:27:59;;;;;;;14.43;10.60;;;;;;;3.65;nan;98704.03;5037819;28;20225;-67
2022/03/02 09:30:26;;;;;;;15.80;11.03;;;;;;;3.97;nan;98706.78;5037586;28;20201;-67
2022/03/02 09:32:54;;;;;;;19.17;12.20;;;;;;;3.96;nan;98692.78;5037452;28;20601;-68
2022/03/02 09:35:21;;;;;;;13.63;10.67;;;;;;;4.12;nan;98694.63;5037640;28;20203;-67
2022/03/02 09:37:49;;;;;;;14.93;11.30;;;;;;;4.20;nan;98692.81;5038395;28;20489;-67
2022/03/02 09:40:29;;;;;;;16.10;11.73;;;;;;;4.59;nan;98693.81;5037553;28;20198;-68
2022/03/02 09:42:59;;;;;;;15.63;11.93;;;;;;;4.39;nan;98689.03;5037223;28;20495;-67
2022/03/02 09:45:27;;;;;;;20.00;12.13;;;;;;;4.72;nan;98685.41;5038065;28;20200;-67
2022/03/02 09:47:59;;;;;;;13.97;10.40;;;;;;;5.04;nan;98690.59;5037592;28;20222;-67
2022/03/02 09:50:31;;;;;;;17.40;12.20;;;;;;;4.89;nan;98693.09;5037218;28;20497;-68
2022/03/02 09:53:01;;;;;;;15.90;10.70;;;;;;;4.97;nan;98695.72;5037584;28;20194;-67
2022/03/02 09:55:28;;;;;;;18.33;10.77;;;;;;;4.72;nan;98690.66;5037718;28;20199;-68
2022/03/02 09:57:57;;;;;;;14.47;11.63;;;;;;;4.84;nan;98689.34;5037383;28;20660;-67
2022/03/02 10:00:26;;;;;;;13.60;10.43;;;;;;;4.85;nan;98681.28;5037211;28;20221;-67
2022/03/02 10:02:56;;;;;;;16.53;10.87;;;;;;;4.98;nan;98684.19;5037200;28;20512;-67
2022/03/02 10:05:25;;;;;;;12.10;10.50;;;;;;;4.91;nan;98682.38;5036929;28;20578;-67
2022/03/02 10:08:01;;;;;;;16.00;10.70;;;;;;;5.20;nan;98672.91;5037258;28;20226;-67
2022/03/02 10:10:33;;;;;;;15.97;10.13;;;;;;;5.10;nan;98679.38;5037262;28;20185;-67
2022/03/02 10:13:02;;;;;;;15.07;10.63;;;;;;;5.18;nan;98671.44;5037050;28;20286;-67
2022/03/02 10:15:30;;;;;;;13.97;10.33;;;;;;;5.29;nan;98673.72;5037018;28;20197;-67
2022/03/02 10:18:00;;;;;;;20.60;10.47;;;;;;;5.38;nan;98667.44;5037234;28;20237;-67
2022/03/02 10:20:32;;;;;;;16.67;10.97;;;;;;;5.94;nan;98670.63;5036682;28;20582;-67
2022/03/02 10:23:04;;;;;;;13.73;10.80;;;;;;;5.79;nan;98671.50;5036916;28;20216;-67
2022/03/02 10:25:50;;;;;;;16.03;11.17;;;;;;;5.80;nan;98668.72;5037019;28;20201;-67
2022/03/02 10:28:28;;;;;;;14.67;11.37;;;;;;;5.88;nan;98666.03;5036850;28;20683;-67
2022/03/02 10:31:33;;;;;;;16.73;11.47;;;;;;;5.87;nan;98668.81;5036937;28;20281;-67
2022/03/02 10:34:10;;;;;;;12.50;10.63;;;;;;;5.86;nan;98672.47;5033352;28;20202;-67
2022/03/02 10:36:41;;;;;;;16.00;10.50;;;;;;;5.97;nan;98664.97;5036676;28;20516;-68
2022/03/02 10:39:08;;;;;;;19.63;11.10;;;;;;;5.77;nan;98666.41;5036530;28;20276;-67
2022/03/02 10:41:39;;;;;;;18.30;11.57;;;;;;;6.25;nan;98667.91;5036565;28;20209;-67
2022/03/02 10:44:26;;;;;;;14.43;10.60;;;;;;;5.89;nan;98661.56;5036385;28;20206;-70
2022/03/02 10:47:01;;;;;;;14.23;11.30;;;;;;;5.71;nan;98658.34;5036256;28;20603;-67
2022/03/02 10:49:30;;;;;;;19.63;10.83;;;;;;;5.60;nan;98661.38;5036474;28;20232;-68
2022/03/02 10:51:58;;;;;;;14.97;10.73;;;;;;;5.85;nan;98645.28;5036567;28;20226;-67
2022/03/02 10:54:25;;;;;;;14.33;9.83;;;;;;;5.97;nan;98649.13;5036245;28;20186;-68
2022/03/02 10:56:53;;;;;;;15.93;10.97;;;;;;;6.01;nan;98654.91;5036504;28;20204;-67
2022/03/02 10:59:24;;;;;;;15.07;10.10;;;;;;;6.60;nan;98640.88;5035954;28;20284;-68
2022/03/02 11:01:51;;;;;;;14.57;10.30;;;;;;;6.78;nan;98641.38;5035669;28;20496;-67
2022/03/02 11:04:22;;;;;;;15.63;10.83;;;;;;;6.20;nan;98643.88;5036078;28;20210;-68
2022/03/02 11:06:49;;;;;;;15.33;11.30;;;;;;;6.06;nan;98642.81;5036321;28;20194;-68
2022/03/02 11:09:21;;;;;;;15.80;11.13;;;;;;;6.44;nan;98618.09;5036058;28;20244;-68
2022/03/02 11:11:48;;;;;;;16.20;11.03;;;;;;;6.67;nan;98616.19;5036124;28;20498;-67
2022/03/02 11:14:15;;;;;;;18.10;11.17;;;;;;;6.54;nan;98623.91;5036259;28;20190;-67
2022/03/02 11:16:43;;;;;;;15.93;10.33;;;;;;;6.32;nan;98626.59;5036148;28;20202;-68
2022/03/02 11:19:15;;;;;;;15.27;10.33;;;;;;;6.46;nan;98624.00;5035813;28;20222;-67
2022/03/02 11:21:43;;;;;;;17.60;10.50;;;;;;;6.79;nan;98612.09;5036140;28;20284;-67
2022/03/02 11:24:16;;;;;;;16.57;10.73;;;;;;;6.58;nan;98616.44;5035643;28;20513;-67
2022/03/02 11:26:44;;;;;;;14.20;10.40;;;;;;;6.42;nan;98609.50;5036146;28;20209;-67
2022/03/02 11:29:13;;;;;;;15.10;10.33;;;;;;;6.66;nan;98600.53;5049800;28;20637;-67
2022/03/02 11:31:41;;;;;;;12.57;9.47;;;;;;;6.88;nan;98607.56;5055916;28;20189;-67
2022/03/02 11:34:17;;;;;;;14.27;10.73;;;;;;;7.21;nan;98614.09;5056042;28;20186;-68
2022/03/02 11:36:49;;;;;;;15.00;10.60;;;;;;;6.92;nan;98609.63;5055584;28;20280;-68
2022/03/02 11:39:18;;;;;;;18.37;11.17;;;;;;;6.91;nan;98600.06;5055996;28;20229;-68
2022/03/02 11:41:46;;;;;;;16.00;11.47;;;;;;;7.16;nan;98597.97;5055573;28;20186;-68
2022/03/02 11:44:44;;;;;;;18.30;10.77;;;;;;;7.62;nan;98607.25;5055483;28;20229;-68